PILOTS ONLINE: 308    ATC ONLINE: 54

Location

IATA YYH
City Taloyoak
Country  Canada
Latitude 69° 32' 48" N
Longitude 93° 34' 36" W
Elevation 92 ft
Type Medium Airport

Weather

METAR
2014/07/12 04:00
CYYH 120400Z 06016G22KT 15SM FEW025 SCT040 BKN070 08/04 A3003 RMK CU1SC1AC3 VCSH E + S SLP170
TAF
2014/07/11 18:42
TAF CYYH 111739Z 1118/1206 03015KT P6SM SCT040 
      TEMPO 1118/1206 BKN040 
      RMK NXT FCST BY 120000Z

Runways

15T/33T 4020 ft / 100 ft

Outbound flights

Inbound flights


Spotted incorrect airport information? Please login with your VATSIM ID.